Aérodrome :
LOGIN :

S'inscrire | Disclaimer

   EN    FR    IT 

 










Légende :    VFR   VFR Marginal   IFR   IFR Intensif   IFR Très Intensif
Visi : 
Plafond : 
>= 8 km
>= 3000ft
5 à 8 km
1000 à 3000 ft
1500m à 5 km
500 à 1000 ft
800 à 1500m
200 à 500 ft
< 800m
< 200 ft
Symboles :   Orages  Brouillard  Fortes neiges  Fortes précipitations  Vent > 20 kt
SIGMETs :   Divers  Orages  Givrage  Turbulence  Onde Orograph.  Cendres Volcan.






- Altitude de l'aérodrome : 17 ft
- Code IATA : DND


EGPN - Dundee

DERNIER METAR :
  • 151820Z 00000KT 9999 BKN044 11/10 Q1000

METARs EXPIRÉS :
  • 151750Z 00000KT 9999 BKN044 11/10 Q1000
  • 151720Z 00000KT 9999 BKN044 12/10 Q1000
  • 151650Z 00000KT 9999 SCT018 BKN043 11/10 Q1000
  • 151620Z 14002KT 9999 FEW015 BKN047 12/10 Q1000

TAF TAF EGPN
Valide du 15 à 18h jusqu'au 15 à 20h UTC


151657Z 1518/1520 15005KT 9999 SCT015
PROB30
TEMPO 1518/1520 BKN012



MET'MAP, la Météo Aéronautique d'un coup d'oeil ! - Copyright ORBIFLY Décembre 2007 - Disclaimer

ORBIFLY MET'MAP TEAM :

Programmation & Développement : Alexandra Zaïnal
Conception & Développement : Baudouin d'Aumeries
Co-Programmation & Développement : Marc-Olivier Méhu
Soutien technique & logistique : Manuel Goepfert

Contact : metmap@orbifly.com




SOURCES & CREDITS :

   NOAA